Time;durP1;ratioP1;P1;durP2;ratioP2;P2;SDS_P1;SDS_P2;PMS_P1;PMS_P2;Temp;Humidity;BMP_temperature;BMP_pressure;BME280_temperature;BME280_humidity;BME280_pressure;Samples;Min_cycle;Max_cycle;Signal;HPM_P1;HPM_P2
2023/09/26 00:00:31;;;;;;;14.73;4.70;;;;;;;;;;4844176;29;20042;-71
2023/09/26 00:02:59;;;;;;;17.35;4.10;;;;;;;;;;4826311;29;20057;-72
2023/09/26 00:05:27;;;;;;;10.35;3.92;;;;;;;;;;4843741;29;20057;-71
2023/09/26 00:07:55;;;;;;;13.32;3.80;;;;;;;;;;4843602;29;20581;-71
2023/09/26 00:10:22;;;;;;;19.17;3.63;;;;;;;;;;4827209;29;20053;-71
2023/09/26 00:12:50;;;;;;;18.83;4.07;;;;;;;;;;4843998;29;20115;-72
2023/09/26 00:15:18;;;;;;;10.55;4.03;;;;;;;;;;4843672;29;20049;-71
2023/09/26 00:17:46;;;;;;;10.73;4.03;;;;;;;;;;4843635;29;20062;-71
2023/09/26 00:20:23;;;;;;;15.32;3.63;;;;;;;;;;4843545;29;20050;-71
2023/09/26 00:22:51;;;;;;;11.00;3.83;;;;;;;;;;4843703;29;20053;-71
2023/09/26 00:25:19;;;;;;;13.98;3.78;;;;;;;;;;4843430;29;20049;-72
2023/09/26 00:27:47;;;;;;;14.65;3.83;;;;;;;;;;4843392;29;20042;-71
2023/09/26 00:30:15;;;;;;;21.17;4.43;;;;;;;;;;4843394;29;20039;-71
2023/09/26 00:32:42;;;;;;;12.20;3.30;;;;;;;;;;4826862;29;20061;-71
2023/09/26 00:35:13;;;;;;;18.80;3.75;;;;;;;;;;4826859;29;20058;-70
2023/09/26 00:37:41;;;;;;;11.77;4.25;;;;;;;;;;4826717;29;20054;-71
2023/09/26 00:40:11;;;;;;;15.88;4.00;;;;;;;;;;4826794;29;20535;-71
2023/09/26 00:42:38;;;;;;;18.60;4.13;;;;;;;;;;4826765;29;20552;-70
2023/09/26 00:45:06;;;;;;;14.18;4.22;;;;;;;;;;4826707;29;20129;-71
2023/09/26 00:47:35;;;;;;;11.90;3.90;;;;;;;;;;4842960;29;20077;-71
2023/09/26 00:50:04;;;;;;;15.27;4.13;;;;;;;;;;4826628;29;20133;-71
2023/09/26 00:52:32;;;;;;;13.02;4.03;;;;;;;;;;4826507;29;20128;-70
2023/09/26 00:55:02;;;;;;;11.75;3.88;;;;;;;;;;4842983;29;20042;-70
2023/09/26 00:57:33;;;;;;;11.40;4.13;;;;;;;;;;4826292;29;20061;-70
2023/09/26 01:00:02;;;;;;;16.15;4.60;;;;;;;;;;4826367;29;20049;-70
2023/09/26 01:02:29;;;;;;;14.60;4.43;;;;;;;;;;4826407;29;20136;-71
2023/09/26 01:04:57;;;;;;;14.10;4.05;;;;;;;;;;4826353;29;20050;-71
2023/09/26 01:07:26;;;;;;;14.30;4.18;;;;;;;;;;4842671;29;20034;-71
2023/09/26 01:09:54;;;;;;;10.23;4.13;;;;;;;;;;4842608;29;20075;-71
2023/09/26 01:12:21;;;;;;;10.52;4.10;;;;;;;;;;4826250;29;20504;-71
2023/09/26 01:14:49;;;;;;;14.38;4.40;;;;;;;;;;4825946;29;20102;-71
2023/09/26 01:17:17;;;;;;;14.68;4.40;;;;;;;;;;4826288;29;20060;-71
2023/09/26 01:19:44;;;;;;;12.05;4.13;;;;;;;;;;4826321;29;20136;-71
2023/09/26 01:22:16;;;;;;;15.13;5.07;;;;;;;;;;4826186;29;20045;-71
2023/09/26 01:24:44;;;;;;;11.15;4.55;;;;;;;;;;4811072;29;20106;-71
2023/09/26 01:27:12;;;;;;;17.00;4.80;;;;;;;;;;4842401;29;20057;-71
2023/09/26 01:29:39;;;;;;;17.58;5.03;;;;;;;;;;4842527;29;20038;-71
2023/09/26 01:32:07;;;;;;;15.98;6.03;;;;;;;;;;4826134;29;20117;-71
2023/09/26 01:34:34;;;;;;;18.33;6.90;;;;;;;;;;4825870;29;20141;-71
2023/09/26 01:37:02;;;;;;;14.75;7.32;;;;;;;;;;4825870;29;20404;-71
2023/09/26 01:39:33;;;;;;;13.52;6.47;;;;;;;;;;4842201;29;20060;-71
2023/09/26 01:42:00;;;;;;;11.98;6.03;;;;;;;;;;4825795;29;20069;-71
2023/09/26 01:44:28;;;;;;;15.15;6.63;;;;;;;;;;4825800;29;20038;-71
2023/09/26 01:46:56;;;;;;;21.23;5.57;;;;;;;;;;4825686;29;20050;-71
2023/09/26 01:49:24;;;;;;;13.88;5.32;;;;;;;;;;4825891;29;20441;-71
2023/09/26 01:51:52;;;;;;;17.55;4.57;;;;;;;;;;4825979;29;20048;-71
2023/09/26 01:54:20;;;;;;;9.50;4.63;;;;;;;;;;4825657;29;20083;-71
2023/09/26 01:56:47;;;;;;;14.50;4.50;;;;;;;;;;4825745;29;20454;-71
2023/09/26 01:59:15;;;;;;;12.27;4.40;;;;;;;;;;4825704;29;20045;-71
2023/09/26 02:01:42;;;;;;;12.38;4.57;;;;;;;;;;4825779;29;20049;-71
2023/09/26 02:04:10;;;;;;;21.75;4.60;;;;;;;;;;4825563;29;20038;-71
2023/09/26 02:06:38;;;;;;;13.20;4.22;;;;;;;;;;4825565;29;20042;-71
2023/09/26 02:09:05;;;;;;;11.88;4.25;;;;;;;;;;4825409;29;20046;-71
2023/09/26 02:11:33;;;;;;;9.07;4.07;;;;;;;;;;4825604;29;20500;-70
2023/09/26 02:14:00;;;;;;;11.15;4.35;;;;;;;;;;4825571;29;20496;-71
2023/09/26 02:16:28;;;;;;;15.18;4.53;;;;;;;;;;4825565;29;20413;-72
2023/09/26 02:18:56;;;;;;;6.88;4.20;;;;;;;;;;4825561;29;20058;-71
2023/09/26 02:21:25;;;;;;;14.63;4.57;;;;;;;;;;4825390;29;20420;-71
2023/09/26 02:23:53;;;;;;;12.32;4.43;;;;;;;;;;4841850;29;20442;-72
2023/09/26 02:26:21;;;;;;;12.95;4.30;;;;;;;;;;4842327;29;20038;-72
2023/09/26 02:28:49;;;;;;;14.27;4.78;;;;;;;;;;4829098;29;20054;-72
2023/09/26 02:31:16;;;;;;;13.73;4.18;;;;;;;;;;4845871;29;20052;-71
2023/09/26 02:33:45;;;;;;;21.88;4.88;;;;;;;;;;4828992;29;20054;-72
2023/09/26 02:36:12;;;;;;;13.30;4.82;;;;;;;;;;4829003;29;20112;-71
2023/09/26 02:38:40;;;;;;;16.27;4.40;;;;;;;;;;4845476;29;20516;-72
2023/09/26 02:41:08;;;;;;;9.88;4.65;;;;;;;;;;4828987;29;20085;-72
2023/09/26 02:43:37;;;;;;;15.15;4.63;;;;;;;;;;4828862;29;20058;-71
2023/09/26 02:46:05;;;;;;;12.45;5.05;;;;;;;;;;4828787;29;20042;-72
2023/09/26 02:48:32;;;;;;;12.68;4.55;;;;;;;;;;4828726;29;20547;-72
2023/09/26 02:51:06;;;;;;;14.32;4.72;;;;;;;;;;4845156;29;20048;-72
2023/09/26 02:53:34;;;;;;;14.45;4.80;;;;;;;;;;4845391;29;20408;-72
2023/09/26 02:56:01;;;;;;;10.60;4.05;;;;;;;;;;4828578;29;20073;-72
2023/09/26 02:58:29;;;;;;;15.05;4.70;;;;;;;;;;4845165;29;20050;-71
2023/09/26 03:00:56;;;;;;;12.63;4.15;;;;;;;;;;4845131;29;20042;-71
2023/09/26 03:03:24;;;;;;;9.65;4.50;;;;;;;;;;4828496;29;20042;-71
2023/09/26 03:05:56;;;;;;;14.13;4.53;;;;;;;;;;4828431;29;20065;-71
2023/09/26 03:08:49;;;;;;;12.68;4.40;;;;;;;;;;4813220;29;20057;-72
2023/09/26 03:11:16;;;;;;;9.20;4.60;;;;;;;;;;4828285;29;20042;-70
2023/09/26 03:13:44;;;;;;;12.13;4.13;;;;;;;;;;4844698;29;20081;-71
2023/09/26 03:16:14;;;;;;;11.00;4.82;;;;;;;;;;4844730;29;20054;-69
2023/09/26 03:18:41;;;;;;;10.48;4.10;;;;;;;;;;4828137;29;20523;-70
2023/09/26 03:21:11;;;;;;;8.88;4.07;;;;;;;;;;4828195;29;20042;-70
2023/09/26 03:23:38;;;;;;;11.93;4.50;;;;;;;;;;4844833;29;20106;-72
2023/09/26 03:26:15;;;;;;;11.70;4.10;;;;;;;;;;4844482;29;20085;-72
2023/09/26 03:28:43;;;;;;;12.13;4.00;;;;;;;;;;4827771;29;20046;-73
2023/09/26 03:31:10;;;;;;;10.77;4.40;;;;;;;;;;4827811;29;20053;-71
2023/09/26 03:33:39;;;;;;;15.80;4.63;;;;;;;;;;4827802;29;20116;-73
2023/09/26 03:36:07;;;;;;;13.60;4.32;;;;;;;;;;4827661;29;20118;-72
2023/09/26 03:38:35;;;;;;;13.15;4.22;;;;;;;;;;4827066;29;20054;-73
2023/09/26 03:41:03;;;;;;;13.02;4.53;;;;;;;;;;4844168;29;20076;-74
2023/09/26 03:43:31;;;;;;;9.05;4.13;;;;;;;;;;4844246;29;20061;-72
2023/09/26 03:46:03;;;;;;;16.92;4.45;;;;;;;;;;4844180;29;20050;-73
2023/09/26 03:48:31;;;;;;;11.48;4.07;;;;;;;;;;4843893;29;20046;-74
2023/09/26 03:51:08;;;;;;;11.45;4.38;;;;;;;;;;4844133;29;20050;-74
2023/09/26 03:53:36;;;;;;;12.55;4.15;;;;;;;;;;4844391;29;20103;-74
2023/09/26 03:56:05;;;;;;;10.68;4.05;;;;;;;;;;4827336;29;20054;-74
2023/09/26 03:58:32;;;;;;;15.30;4.40;;;;;;;;;;4843700;29;20098;-74
2023/09/26 04:01:09;;;;;;;13.75;3.88;;;;;;;;;;4843989;29;20114;-74
2023/09/26 04:03:39;;;;;;;9.20;4.28;;;;;;;;;;4843897;29;20045;-74
2023/09/26 04:06:07;;;;;;;9.05;4.35;;;;;;;;;;4843968;29;20054;-74
2023/09/26 04:08:35;;;;;;;12.88;4.25;;;;;;;;;;4843659;29;20106;-74
2023/09/26 04:11:02;;;;;;;14.20;4.30;;;;;;;;;;4843880;29;20125;-74
2023/09/26 04:13:29;;;;;;;12.75;4.05;;;;;;;;;;4843776;29;20049;-74
2023/09/26 04:15:57;;;;;;;15.43;4.70;;;;;;;;;;4843566;29;20121;-74
2023/09/26 04:18:27;;;;;;;11.88;4.78;;;;;;;;;;4827811;29;20077;-74
2023/09/26 04:20:54;;;;;;;12.10;4.90;;;;;;;;;;4843616;29;20121;-74
2023/09/26 04:23:22;;;;;;;14.85;5.07;;;;;;;;;;4843551;29;20049;-74
2023/09/26 04:25:49;;;;;;;10.13;5.25;;;;;;;;;;4843556;29;20069;-74
2023/09/26 04:28:17;;;;;;;15.07;4.82;;;;;;;;;;4843414;29;20082;-74
2023/09/26 04:30:44;;;;;;;9.18;4.40;;;;;;;;;;4827177;29;20114;-74
2023/09/26 04:33:12;;;;;;;11.52;4.60;;;;;;;;;;4843318;29;20069;-74
2023/09/26 04:35:39;;;;;;;16.02;4.95;;;;;;;;;;4843315;29;20048;-74
2023/09/26 04:38:07;;;;;;;13.48;4.10;;;;;;;;;;4843285;29;20407;-74
2023/09/26 04:40:35;;;;;;;12.27;4.80;;;;;;;;;;4843404;29;20076;-74
2023/09/26 04:43:04;;;;;;;13.15;4.22;;;;;;;;;;4826877;29;20556;-74
2023/09/26 04:45:32;;;;;;;14.82;4.38;;;;;;;;;;4843241;29;20057;-74
2023/09/26 04:48:02;;;;;;;18.83;4.40;;;;;;;;;;4843058;29;20049;-72
2023/09/26 04:50:30;;;;;;;19.35;4.90;;;;;;;;;;4842613;29;20446;-74
2023/09/26 04:52:59;;;;;;;13.65;4.75;;;;;;;;;;4843253;29;20464;-73
2023/09/26 04:55:27;;;;;;;12.68;4.63;;;;;;;;;;4843179;29;20484;-73
2023/09/26 04:57:54;;;;;;;18.23;5.65;;;;;;;;;;4826583;29;20062;-75
2023/09/26 05:00:22;;;;;;;19.08;4.80;;;;;;;;;;4826722;29;20114;-73
2023/09/26 05:02:53;;;;;;;14.68;4.70;;;;;;;;;;4842570;29;20488;-74
2023/09/26 05:05:20;;;;;;;18.00;4.95;;;;;;;;;;4842198;29;20042;-72
2023/09/26 05:07:49;;;;;;;14.93;4.43;;;;;;;;;;4842268;29;20121;-69
2023/09/26 05:10:16;;;;;;;15.55;4.90;;;;;;;;;;4842815;29;20137;-72
2023/09/26 05:12:44;;;;;;;13.55;4.53;;;;;;;;;;4842756;29;20042;-71
2023/09/26 05:15:13;;;;;;;17.55;5.10;;;;;;;;;;4842801;29;20058;-72
2023/09/26 05:17:51;;;;;;;20.60;5.28;;;;;;;;;;4842633;29;20058;-71
2023/09/26 05:20:19;;;;;;;17.35;5.53;;;;;;;;;;4842676;29;20054;-71
2023/09/26 05:22:47;;;;;;;20.75;5.28;;;;;;;;;;4842606;29;20434;-71
2023/09/26 05:25:15;;;;;;;15.65;5.10;;;;;;;;;;4842596;29;20106;-73
2023/09/26 05:27:44;;;;;;;14.68;5.25;;;;;;;;;;4842417;29;20048;-73
2023/09/26 05:30:12;;;;;;;10.07;4.55;;;;;;;;;;4825936;29;20052;-71
2023/09/26 05:32:40;;;;;;;15.13;5.40;;;;;;;;;;4825680;29;20129;-73
2023/09/26 05:35:08;;;;;;;12.15;4.88;;;;;;;;;;4842328;29;20042;-71
2023/09/26 05:37:36;;;;;;;10.80;4.47;;;;;;;;;;4842141;29;20071;-70
2023/09/26 05:40:08;;;;;;;18.80;4.45;;;;;;;;;;4842185;29;20439;-71
2023/09/26 05:42:37;;;;;;;10.73;4.82;;;;;;;;;;4826256;29;20069;-71
2023/09/26 05:45:06;;;;;;;18.38;5.47;;;;;;;;;;4842206;29;20120;-71
2023/09/26 05:47:33;;;;;;;14.20;4.97;;;;;;;;;;4842125;29;20493;-71
2023/09/26 05:50:06;;;;;;;18.48;4.63;;;;;;;;;;4842193;29;20057;-71
2023/09/26 05:52:34;;;;;;;16.88;5.70;;;;;;;;;;4842093;29;20041;-71
2023/09/26 05:55:03;;;;;;;19.15;5.50;;;;;;;;;;4826199;29;20053;-71
2023/09/26 05:57:31;;;;;;;14.68;4.95;;;;;;;;;;4842090;29;20144;-71
2023/09/26 05:59:59;;;;;;;17.25;5.13;;;;;;;;;;4841905;29;20042;-71
2023/09/26 06:02:26;;;;;;;14.82;5.18;;;;;;;;;;4842070;29;20051;-71
2023/09/26 06:04:54;;;;;;;13.85;4.53;;;;;;;;;;4841961;29;20045;-71
2023/09/26 06:07:22;;;;;;;17.38;4.53;;;;;;;;;;4825832;29;20042;-71
2023/09/26 06:09:50;;;;;;;17.70;4.60;;;;;;;;;;4841992;29;20069;-71
2023/09/26 06:12:35;;;;;;;14.02;4.53;;;;;;;;;;4825632;29;20138;-71
2023/09/26 06:15:05;;;;;;;13.10;4.80;;;;;;;;;;4842111;29;20041;-72
2023/09/26 06:17:34;;;;;;;14.90;4.32;;;;;;;;;;4841892;29;20129;-71
2023/09/26 06:20:02;;;;;;;13.65;4.18;;;;;;;;;;4841879;29;20057;-72
2023/09/26 06:22:29;;;;;;;13.00;4.53;;;;;;;;;;4825342;29;20046;-71
2023/09/26 06:24:58;;;;;;;12.95;4.60;;;;;;;;;;4841782;29;20046;-72
2023/09/26 06:27:27;;;;;;;10.48;4.22;;;;;;;;;;4841696;29;20050;-71
2023/09/26 06:29:54;;;;;;;17.45;5.13;;;;;;;;;;4841643;29;20121;-71
2023/09/26 06:32:23;;;;;;;13.43;5.00;;;;;;;;;;4841788;29;20054;-71
2023/09/26 06:34:50;;;;;;;14.73;4.90;;;;;;;;;;4841839;29;20050;-71
2023/09/26 06:37:19;;;;;;;14.45;5.45;;;;;;;;;;4841689;29;20129;-71
2023/09/26 06:39:47;;;;;;;12.85;4.82;;;;;;;;;;4841630;29;20580;-72
2023/09/26 06:42:14;;;;;;;10.98;5.03;;;;;;;;;;4841572;29;20577;-71
2023/09/26 06:44:42;;;;;;;13.15;5.05;;;;;;;;;;4841650;29;20042;-71
2023/09/26 06:47:10;;;;;;;16.90;5.25;;;;;;;;;;4825398;29;20050;-72
2023/09/26 06:49:38;;;;;;;17.30;4.95;;;;;;;;;;4841522;29;20497;-71
2023/09/26 06:52:06;;;;;;;12.25;5.40;;;;;;;;;;4841629;29;20042;-72
2023/09/26 06:54:33;;;;;;;13.20;4.95;;;;;;;;;;4841590;29;20511;-71
2023/09/26 06:57:01;;;;;;;11.70;4.75;;;;;;;;;;4841535;29;20054;-71
2023/09/26 06:59:28;;;;;;;13.23;4.90;;;;;;;;;;4841774;29;20038;-71
2023/09/26 07:01:56;;;;;;;14.88;5.25;;;;;;;;;;4841761;29;20042;-71
2023/09/26 07:04:23;;;;;;;15.88;4.45;;;;;;;;;;4841478;29;20493;-70
2023/09/26 07:06:51;;;;;;;15.77;4.65;;;;;;;;;;4841405;29;20114;-71
2023/09/26 07:09:20;;;;;;;16.58;4.78;;;;;;;;;;4841412;29;20052;-71
2023/09/26 07:11:47;;;;;;;14.95;4.53;;;;;;;;;;4841690;29;20050;-71
2023/09/26 07:14:16;;;;;;;12.77;4.43;;;;;;;;;;4844529;29;20042;-71
2023/09/26 07:16:47;;;;;;;12.25;4.68;;;;;;;;;;4844909;29;20042;-72
2023/09/26 07:19:14;;;;;;;11.13;4.78;;;;;;;;;;4828175;29;20144;-71
2023/09/26 07:21:42;;;;;;;9.75;4.53;;;;;;;;;;4844726;29;20454;-71
2023/09/26 07:24:09;;;;;;;10.68;4.22;;;;;;;;;;4844793;29;20049;-71
2023/09/26 07:26:39;;;;;;;11.85;4.45;;;;;;;;;;4828060;29;20046;-71
2023/09/26 07:29:08;;;;;;;10.55;4.50;;;;;;;;;;4844613;29;20046;-71
2023/09/26 07:31:36;;;;;;;15.23;5.28;;;;;;;;;;4828219;29;20061;-70
2023/09/26 07:34:04;;;;;;;11.20;4.55;;;;;;;;;;4844574;29;20053;-70
2023/09/26 07:36:32;;;;;;;14.45;4.25;;;;;;;;;;4844822;29;20094;-70
2023/09/26 07:39:00;;;;;;;11.43;4.70;;;;;;;;;;4844331;29;20069;-71
2023/09/26 07:41:27;;;;;;;14.68;5.90;;;;;;;;;;4844347;29;20049;-71
2023/09/26 07:43:55;;;;;;;18.63;4.50;;;;;;;;;;4844416;29;20136;-71
2023/09/26 07:46:23;;;;;;;11.68;4.55;;;;;;;;;;4844318;29;20065;-70
2023/09/26 07:48:50;;;;;;;11.80;4.47;;;;;;;;;;4844303;29;20463;-71
2023/09/26 07:51:19;;;;;;;13.32;5.45;;;;;;;;;;4844118;29;20042;-70
2023/09/26 07:53:46;;;;;;;15.68;6.05;;;;;;;;;;4828045;29;20110;-71
2023/09/26 07:56:14;;;;;;;9.63;5.53;;;;;;;;;;4844059;29;20048;-70
2023/09/26 07:58:41;;;;;;;15.55;4.80;;;;;;;;;;4844147;29;20050;-70
2023/09/26 08:01:09;;;;;;;13.52;4.63;;;;;;;;;;4844113;29;20049;-70
2023/09/26 08:03:43;;;;;;;10.95;4.82;;;;;;;;;;4844237;29;20077;-72
2023/09/26 08:06:13;;;;;;;11.77;5.35;;;;;;;;;;4844158;29;20124;-71
2023/09/26 08:08:41;;;;;;;12.35;5.38;;;;;;;;;;4843908;29;20057;-71
2023/09/26 08:11:12;;;;;;;10.45;4.85;;;;;;;;;;4844024;29;20575;-69
2023/09/26 08:13:40;;;;;;;12.98;4.75;;;;;;;;;;4844009;29;20069;-70
2023/09/26 08:16:08;;;;;;;11.60;4.47;;;;;;;;;;4843822;29;20464;-71
2023/09/26 08:18:37;;;;;;;14.98;4.72;;;;;;;;;;4843804;29;20121;-71
2023/09/26 08:21:05;;;;;;;12.13;4.53;;;;;;;;;;4843776;29;20125;-71
2023/09/26 08:23:33;;;;;;;11.68;4.63;;;;;;;;;;4843310;29;20129;-70
2023/09/26 08:26:01;;;;;;;10.55;4.50;;;;;;;;;;4843105;29;20048;-70
2023/09/26 08:28:29;;;;;;;12.48;4.88;;;;;;;;;;4827373;29;20501;-70
2023/09/26 08:31:03;;;;;;;19.98;5.97;;;;;;;;;;4843463;29;20038;-70
2023/09/26 08:33:30;;;;;;;15.77;5.60;;;;;;;;;;4843430;29;20097;-71
2023/09/26 08:35:58;;;;;;;13.23;5.25;;;;;;;;;;4843463;29;20042;-71
2023/09/26 08:38:25;;;;;;;15.75;5.10;;;;;;;;;;4827219;29;20046;-70
2023/09/26 08:40:53;;;;;;;10.02;4.50;;;;;;;;;;4827238;29;20512;-71
2023/09/26 08:43:26;;;;;;;19.00;7.45;;;;;;;;;;4843403;29;20057;-70
2023/09/26 08:45:54;;;;;;;17.08;5.32;;;;;;;;;;4843370;29;20553;-70
2023/09/26 08:48:22;;;;;;;17.90;4.97;;;;;;;;;;4843177;29;20038;-70
2023/09/26 08:50:52;;;;;;;13.05;5.13;;;;;;;;;;4843202;29;20489;-71
2023/09/26 08:53:20;;;;;;;15.00;5.43;;;;;;;;;;4843116;29;20049;-70
2023/09/26 08:55:51;;;;;;;13.07;4.60;;;;;;;;;;4843134;29;20132;-70
2023/09/26 08:58:20;;;;;;;11.43;4.63;;;;;;;;;;4842894;29;20082;-71
2023/09/26 09:00:50;;;;;;;14.52;4.53;;;;;;;;;;4827077;29;20565;-71
2023/09/26 09:03:17;;;;;;;13.45;4.78;;;;;;;;;;4843291;29;20070;-71
2023/09/26 09:05:45;;;;;;;15.30;4.68;;;;;;;;;;4842926;29;20053;-72
2023/09/26 09:08:20;;;;;;;11.27;4.57;;;;;;;;;;4842766;29;20509;-70
2023/09/26 09:10:55;;;;;;;9.40;4.72;;;;;;;;;;4842704;29;20085;-71
2023/09/26 09:13:29;;;;;;;14.45;4.70;;;;;;;;;;4843140;29;20042;-70
2023/09/26 09:16:07;;;;;;;14.75;4.68;;;;;;;;;;4826777;29;20386;-71
2023/09/26 09:18:36;;;;;;;13.38;4.65;;;;;;;;;;4842742;29;20497;-72
2023/09/26 09:21:34;;;;;;;14.77;4.28;;;;;;;;;;4842725;29;20061;-70
2023/09/26 09:24:02;;;;;;;11.95;4.97;;;;;;;;;;4828264;29;20068;-70
2023/09/26 09:26:32;;;;;;;13.60;4.43;;;;;;;;;;4842575;29;20038;-71
2023/09/26 09:29:16;;;;;;;16.95;5.25;;;;;;;;;;4842545;29;20484;-70
2023/09/26 09:31:44;;;;;;;16.23;5.80;;;;;;;;;;4842820;29;20403;-70
2023/09/26 09:34:12;;;;;;;12.30;5.03;;;;;;;;;;4842421;29;20424;-69
2023/09/26 09:36:39;;;;;;;13.65;4.53;;;;;;;;;;4842247;29;20395;-72
2023/09/26 09:39:10;;;;;;;12.32;4.60;;;;;;;;;;4842314;29;20060;-69
2023/09/26 09:41:38;;;;;;;11.25;4.68;;;;;;;;;;4842418;29;20107;-68
2023/09/26 09:44:06;;;;;;;10.68;4.75;;;;;;;;;;4842248;29;20129;-70
2023/09/26 09:46:35;;;;;;;9.60;3.97;;;;;;;;;;4842298;29;20114;-69
2023/09/26 09:49:03;;;;;;;12.20;4.70;;;;;;;;;;4826075;29;20049;-69
2023/09/26 09:51:33;;;;;;;17.08;4.22;;;;;;;;;;4842254;29;20038;-70
2023/09/26 09:54:00;;;;;;;11.45;4.60;;;;;;;;;;4826133;29;20496;-69
2023/09/26 09:56:34;;;;;;;11.63;4.28;;;;;;;;;;4841945;29;20600;-69
2023/09/26 09:59:06;;;;;;;11.13;4.10;;;;;;;;;;4842133;29;20060;-70
2023/09/26 10:01:34;;;;;;;17.88;4.38;;;;;;;;;;4842025;29;20041;-69
2023/09/26 10:04:02;;;;;;;16.30;4.22;;;;;;;;;;4841944;29;20050;-69
2023/09/26 10:06:30;;;;;;;11.43;4.97;;;;;;;;;;4841957;29;20118;-71
2023/09/26 10:08:58;;;;;;;11.10;4.00;;;;;;;;;;4841868;29;20132;-69
2023/09/26 10:11:27;;;;;;;12.27;4.80;;;;;;;;;;4841884;29;20052;-68
2023/09/26 10:13:54;;;;;;;14.52;3.97;;;;;;;;;;4841714;29;20050;-69
2023/09/26 10:16:25;;;;;;;15.80;4.28;;;;;;;;;;4841832;29;20134;-68
2023/09/26 10:18:53;;;;;;;13.13;4.32;;;;;;;;;;4841898;29;20049;-69
2023/09/26 10:21:24;;;;;;;14.15;4.03;;;;;;;;;;4841630;29;20046;-69
2023/09/26 10:24:16;;;;;;;16.10;6.97;;;;;;;;;;4841829;29;20050;-69
2023/09/26 10:26:44;;;;;;;16.17;6.15;;;;;;;;;;4841822;29;20520;-68
2023/09/26 10:29:13;;;;;;;15.15;4.68;;;;;;;;;;4841740;29;20053;-71
2023/09/26 10:31:42;;;;;;;10.65;4.00;;;;;;;;;;4841772;29;20130;-68
2023/09/26 10:34:11;;;;;;;12.00;4.15;;;;;;;;;;4841744;29;20046;-69
2023/09/26 10:36:39;;;;;;;13.60;4.13;;;;;;;;;;4841878;29;20081;-69
2023/09/26 10:39:09;;;;;;;8.82;3.97;;;;;;;;;;4841926;29;20050;-70
2023/09/26 10:41:37;;;;;;;12.93;4.20;;;;;;;;;;4841729;29;20145;-69
2023/09/26 10:44:25;;;;;;;9.55;3.83;;;;;;;;;;4841619;29;20050;-68
2023/09/26 10:46:53;;;;;;;13.63;4.40;;;;;;;;;;4841644;29;20049;-70
2023/09/26 10:49:21;;;;;;;10.93;4.40;;;;;;;;;;4845090;29;20064;-69
2023/09/26 10:51:49;;;;;;;10.90;3.72;;;;;;;;;;4829255;29;20059;-72
2023/09/26 10:54:16;;;;;;;12.43;4.28;;;;;;;;;;4828689;29;20145;-71
2023/09/26 10:56:47;;;;;;;18.35;5.60;;;;;;;;;;4845188;29;20128;-70
2023/09/26 10:59:18;;;;;;;12.57;4.25;;;;;;;;;;4845136;29;20053;-69
2023/09/26 11:01:46;;;;;;;11.90;5.70;;;;;;;;;;4845140;29;20053;-70
2023/09/26 11:04:14;;;;;;;12.05;4.55;;;;;;;;;;4845082;29;20487;-68
2023/09/26 11:06:42;;;;;;;11.75;3.78;;;;;;;;;;4845007;29;20050;-69
2023/09/26 11:09:30;;;;;;;10.30;4.03;;;;;;;;;;4844917;29;20056;-68
2023/09/26 11:11:57;;;;;;;13.27;4.00;;;;;;;;;;4844969;29;20069;-69
2023/09/26 11:14:26;;;;;;;15.98;4.47;;;;;;;;;;4844929;29;20056;-69
2023/09/26 11:16:54;;;;;;;11.82;4.00;;;;;;;;;;4844864;29;20046;-70
2023/09/26 11:19:24;;;;;;;10.50;4.03;;;;;;;;;;4844871;29;20061;-69
2023/09/26 11:21:52;;;;;;;14.60;4.10;;;;;;;;;;4844868;29;20077;-70
2023/09/26 11:24:19;;;;;;;17.42;4.13;;;;;;;;;;4844767;29;20042;-70
2023/09/26 11:26:48;;;;;;;11.43;3.80;;;;;;;;;;4844948;29;20093;-71
2023/09/26 11:29:17;;;;;;;14.13;4.30;;;;;;;;;;4844617;29;20061;-70
2023/09/26 11:31:44;;;;;;;14.25;4.15;;;;;;;;;;4844519;29;20061;-71
2023/09/26 11:34:12;;;;;;;13.98;3.90;;;;;;;;;;4844433;29;20133;-69
2023/09/26 11:36:40;;;;;;;14.82;4.57;;;;;;;;;;4844363;29;20046;-69
2023/09/26 11:39:11;;;;;;;15.77;6.75;;;;;;;;;;4828285;29;20050;-69
2023/09/26 11:41:38;;;;;;;14.70;6.47;;;;;;;;;;4844503;29;20053;-70
2023/09/26 11:44:17;;;;;;;14.13;6.63;;;;;;;;;;4829897;29;20408;-71
2023/09/26 11:46:45;;;;;;;10.75;4.80;;;;;;;;;;4828095;29;20050;-70
2023/09/26 11:49:13;;;;;;;11.07;3.65;;;;;;;;;;4844229;29;20102;-71
2023/09/26 11:51:41;;;;;;;11.85;4.07;;;;;;;;;;4844294;29;20500;-70
2023/09/26 11:54:09;;;;;;;14.93;4.10;;;;;;;;;;4844221;29;20070;-70
2023/09/26 11:56:37;;;;;;;12.80;4.35;;;;;;;;;;4843917;29;20141;-71
2023/09/26 11:59:05;;;;;;;12.18;4.20;;;;;;;;;;4843939;29;20420;-71
2023/09/26 12:01:33;;;;;;;15.32;4.32;;;;;;;;;;4843911;29;20049;-71
2023/09/26 12:04:06;;;;;;;12.27;4.10;;;;;;;;;;4844000;29;20041;-70
2023/09/26 12:06:34;;;;;;;9.77;4.45;;;;;;;;;;4844292;29;20065;-69
2023/09/26 12:09:04;;;;;;;12.50;5.18;;;;;;;;;;4843742;29;20050;-71
2023/09/26 12:11:31;;;;;;;18.48;4.85;;;;;;;;;;4843836;29;20042;-70
2023/09/26 12:13:59;;;;;;;15.98;5.13;;;;;;;;;;4843965;29;20048;-70
2023/09/26 12:16:29;;;;;;;14.07;4.60;;;;;;;;;;4843742;29;20454;-69
2023/09/26 12:18:57;;;;;;;17.25;4.30;;;;;;;;;;4827574;29;20034;-70
2023/09/26 12:21:24;;;;;;;17.23;4.10;;;;;;;;;;4843762;29;20050;-70
2023/09/26 12:23:52;;;;;;;14.88;4.50;;;;;;;;;;4827131;29;20420;-71
2023/09/26 12:26:20;;;;;;;9.75;4.00;;;;;;;;;;4843567;29;20098;-70
2023/09/26 12:28:48;;;;;;;15.73;4.55;;;;;;;;;;4843655;29;20041;-72
2023/09/26 12:31:15;;;;;;;11.60;4.40;;;;;;;;;;4843478;29;20515;-70
2023/09/26 12:33:43;;;;;;;14.20;4.68;;;;;;;;;;4843605;29;20115;-70
2023/09/26 12:36:11;;;;;;;14.10;4.47;;;;;;;;;;4843414;29;20049;-71
2023/09/26 12:38:40;;;;;;;12.73;4.88;;;;;;;;;;4843459;29;20049;-68
2023/09/26 12:41:08;;;;;;;15.85;5.22;;;;;;;;;;4843669;29;20045;-69
2023/09/26 12:43:36;;;;;;;15.15;6.65;;;;;;;;;;4826748;29;20050;-70
2023/09/26 12:46:04;;;;;;;15.80;5.65;;;;;;;;;;4843064;29;20042;-69
2023/09/26 12:48:31;;;;;;;14.15;5.82;;;;;;;;;;4843440;29;20443;-70
2023/09/26 12:50:59;;;;;;;17.27;4.35;;;;;;;;;;4843135;29;20053;-70
2023/09/26 12:53:29;;;;;;;14.80;4.63;;;;;;;;;;4843207;29;20049;-70
2023/09/26 12:55:57;;;;;;;19.98;5.85;;;;;;;;;;4827083;29;20504;-70
2023/09/26 12:58:24;;;;;;;32.38;18.52;;;;;;;;;;4842902;29;20062;-70
2023/09/26 13:00:52;;;;;;;12.43;4.32;;;;;;;;;;4842978;29;20221;-70
2023/09/26 13:03:20;;;;;;;11.77;5.15;;;;;;;;;;4842966;29;20462;-70
2023/09/26 13:05:47;;;;;;;10.35;4.78;;;;;;;;;;4826817;29;20145;-71
2023/09/26 13:08:15;;;;;;;13.27;4.40;;;;;;;;;;4826742;29;20127;-70
2023/09/26 13:10:42;;;;;;;15.32;5.57;;;;;;;;;;4826079;29;20042;-70
2023/09/26 13:13:10;;;;;;;10.68;4.90;;;;;;;;;;4842797;29;20050;-69
2023/09/26 13:15:37;;;;;;;15.05;3.60;;;;;;;;;;4842774;29;20085;-69
2023/09/26 13:18:05;;;;;;;16.10;3.97;;;;;;;;;;4842745;29;20073;-69
2023/09/26 13:20:33;;;;;;;18.83;4.13;;;;;;;;;;4842578;29;20045;-69
2023/09/26 13:23:03;;;;;;;12.27;3.90;;;;;;;;;;4841320;29;20057;-70
2023/09/26 13:25:31;;;;;;;13.02;3.95;;;;;;;;;;4842162;29;20046;-69
2023/09/26 13:27:58;;;;;;;14.98;7.85;;;;;;;;;;4842500;29;20097;-71
2023/09/26 13:30:28;;;;;;;25.60;4.65;;;;;;;;;;4842235;29;20046;-70
2023/09/26 13:46:12;;;;;;;21.50;5.10;;;;;;;;;;5109600;27;20384;-72
2023/09/26 13:48:39;;;;;;;15.82;3.90;;;;;;;;;;5081503;22;20056;-72
2023/09/26 13:51:08;;;;;;;13.40;3.28;;;;;;;;;;5070000;28;20068;-71
2023/09/26 13:53:36;;;;;;;10.13;3.33;;;;;;;;;;5069332;28;20119;-73
2023/09/26 13:56:03;;;;;;;15.07;3.42;;;;;;;;;;5068444;28;20064;-72
2023/09/26 13:58:31;;;;;;;21.33;5.97;;;;;;;;;;5069243;28;20036;-71
2023/09/26 14:00:58;;;;;;;18.17;4.55;;;;;;;;;;5069543;28;20128;-71
2023/09/26 14:03:26;;;;;;;19.73;4.13;;;;;;;;;;5069337;28;20047;-69
2023/09/26 14:05:53;;;;;;;14.50;3.63;;;;;;;;;;5069655;28;20500;-67
2023/09/26 14:08:21;;;;;;;12.05;3.28;;;;;;;;;;5069079;28;20419;-67
2023/09/26 14:10:49;;;;;;;13.93;3.65;;;;;;;;;;5069338;28;20033;-67
2023/09/26 14:13:16;;;;;;;20.63;3.97;;;;;;;;;;5069160;28;20044;-67
2023/09/26 14:15:44;;;;;;;13.73;3.40;;;;;;;;;;5069174;28;20128;-67
2023/09/26 14:18:11;;;;;;;19.58;3.90;;;;;;;;;;5069127;28;20041;-68
2023/09/26 14:20:39;;;;;;;10.38;3.22;;;;;;;;;;5069096;28;20049;-67
2023/09/26 14:23:06;;;;;;;17.92;3.90;;;;;;;;;;5068985;28;20044;-68
2023/09/26 14:25:34;;;;;;;22.63;5.40;;;;;;;;;;5069005;28;20090;-68
2023/09/26 14:28:03;;;;;;;16.30;3.35;;;;;;;;;;5068935;28;20500;-67
2023/09/26 14:30:31;;;;;;;14.82;3.42;;;;;;;;;;5067616;28;20059;-67
2023/09/26 14:33:00;;;;;;;14.98;3.85;;;;;;;;;;5067610;28;20041;-67
2023/09/26 14:35:28;;;;;;;12.35;3.28;;;;;;;;;;5059523;28;20044;-66
2023/09/26 14:37:56;;;;;;;12.13;3.28;;;;;;;;;;5062880;28;20151;-68
2023/09/26 14:40:23;;;;;;;14.57;3.53;;;;;;;;;;5062692;28;20048;-67
2023/09/26 14:42:51;;;;;;;15.95;4.45;;;;;;;;;;5062684;28;20440;-67
2023/09/26 14:45:18;;;;;;;17.10;4.47;;;;;;;;;;5059380;28;20071;-67
2023/09/26 14:47:46;;;;;;;18.17;3.55;;;;;;;;;;5048889;28;20457;-67
2023/09/26 14:50:13;;;;;;;14.75;3.78;;;;;;;;;;5049797;28;20072;-67
2023/09/26 14:52:41;;;;;;;13.52;3.10;;;;;;;;;;5049699;28;20044;-67